Terminal Aerodrome Forecast
Issued by NWS Sioux Falls, SD

Home | Current Version | Previous Version | Graphics & Text | Print | Product List | Glossary On
Versions: 1 2 3 4 5 6 7 8 9 10 11 12 13 14 15 16 17 18 19 20 21 22
000
FTUS43 KFSD 152003 AAD
TAFSUX
TAF AMD
KSUX 152003Z 1520/1618 13010KT P6SM VCTS BKN060CB
      TEMPO 1521/1522 4SM TSRA OVC050CB
     FM160300 13009KT P6SM SHRA VCTS OVC090CB
     FM161000 12007KT 6SM SHRA BR OVC015
     FM161600 19005KT P6SM SHRA OVC020=

USA.gov is the U.S. government's official web portal to all federal, state and local government web resources and services.